No particular awareness of the weather is required.    There are no Weather-warnings


Meteo18 Weather Cam more information Meteo18 Weather Cam


Thunder radar more information blitzortung!


Rain radar more information rain snow radar


Visit our other weather sites:

Template documentation
and downloads

And another site



Weather Underground History page Text

Daily Summary for March 8, 2018 Units:  Metric    English   Both
« Previous Day
Next Day »
Daily Weekly Monthly Yearly Custom
  High: Low: Average:
Temperature: -17.8 °C -16.8 °C -13.8 °C
Dew Point: -17.8 °C -17.3 °C -16.4 °C
Humidity: Humidity % 48 % 75 %
Wind Speed: 0 km/h 0 km/h 11.1 km/h
Wind Gust: 0 km/h - -
Wind:- - SW
Pressure: 0 hPa 34015.8 hPa -
Precipitation: 0 mm    
Historical Graphs
 
 
Tabular Data for March 8, 2018
Time Temperature Dew Point Pressure Wind Wind Speed Wind Gust Humidity Rainfall Rate (Hourly)
-17.8 °C -17.8 °C 0 hPa Calm     Humidity % 0 mm
00:01 -15.6 °C -16.6 °C 34097 hPa SSE 7.6 km/h 12.9 km/h 88 % 0 mm
00:07 -15.7 °C -16.7 °C 34097 hPa South 7.6 km/h 12.9 km/h 88 % 0 mm
00:13 -15.7 °C -16.6 °C 34097 hPa SSW 5.1 km/h 12.9 km/h 89 % 0 mm
00:19 -15.8 °C -16.7 °C 34107.2 hPa SSW 7.6 km/h 10.3 km/h 89 % 0 mm
00:25 -15.8 °C -16.6 °C 34107.2 hPa SW 7.6 km/h 12.9 km/h 90 % 0 mm
00:31 -15.7 °C -16.6 °C 34107.2 hPa SW 12.7 km/h 12.9 km/h 90 % 0 mm
00:37 -15.8 °C -16.7 °C 34107.2 hPa SW 5.1 km/h 10.3 km/h 89 % 0 mm
00:43 -15.8 °C -16.6 °C 34107.2 hPa SW 5.1 km/h 15.6 km/h 91 % 0 mm
00:49 -15.7 °C -16.4 °C 34097 hPa SW 7.6 km/h 15.6 km/h 91 % 0 mm
00:55 -15.8 °C -16.6 °C 34107.2 hPa SSW 7.6 km/h 10.3 km/h 90 % 0 mm
01:01 -15.9 °C -16.6 °C 34107.2 hPa SW 5.1 km/h 15.6 km/h 91 % 0 mm
01:07 -15.9 °C -16.7 °C 34107.2 hPa SW 7.6 km/h 10.3 km/h 91 % 0 mm
01:13 -16.1 °C -16.8 °C 34107.2 hPa South 7.6 km/h 7.7 km/h 91 % 0 mm
01:19 -16.2 °C -16.8 °C 34107.2 hPa SSW 5.1 km/h 10.3 km/h 92 % 0 mm
01:25 -16.2 °C -16.8 °C 34107.2 hPa SW 7.6 km/h 12.9 km/h 92 % 0 mm
01:31 -16.2 °C -16.9 °C 34107.2 hPa South 2.3 km/h 7.7 km/h 92 % 0 mm
01:37 -16.2 °C -16.8 °C 34097 hPa SSW 2.3 km/h 10.3 km/h 93 % 0 mm
01:43 -16.3 °C -16.9 °C 34107.2 hPa Calm   5.1 km/h 92 % 0 mm
01:49 -16.3 °C -16.9 °C 34097 hPa SE 2.3 km/h 5.1 km/h 93 % 0 mm
01:55 -16.4 °C -17 °C 34097 hPa Calm   2.6 km/h 93 % 0 mm
02:02 -16.5 °C -17.1 °C 34097 hPa Calm   2.6 km/h 93 % 0 mm
02:08 -16.6 °C -17.1 °C 34097 hPa Calm   2.6 km/h 93 % 0 mm
02:14 -16.6 °C -17.2 °C 34097 hPa SSE 2.3 km/h 2.6 km/h 93 % 0 mm
02:20 -16.7 °C -17.2 °C 34097 hPa South 5.1 km/h 7.7 km/h 94 % 0 mm
02:25 -16.7 °C -17.2 °C 34086.9 hPa ESE 2.3 km/h 2.6 km/h 94 % 0 mm
02:32 -16.7 °C -17.2 °C 34086.9 hPa SSE 2.3 km/h 5.1 km/h 94 % 0 mm
02:38 -16.7 °C -17.2 °C 34086.9 hPa SSW 5.1 km/h 10.3 km/h 94 % 0 mm
02:44 -16.6 °C -16.9 °C 34073.3 hPa SSW 10.3 km/h 12.9 km/h 95 % 0 mm
02:50 -16.4 °C -16.8 °C 34073.3 hPa SW 7.6 km/h 15.6 km/h 95 % 0 mm
02:56 -16.2 °C -16.6 °C 34073.3 hPa SW 20.9 km/h 20.9 km/h 95 % 0 mm
03:02 -16 °C -16.5 °C 34073.3 hPa SW 7.6 km/h 23.3 km/h 94 % 0 mm
03:08 -15.9 °C -16.4 °C 34073.3 hPa SW 17.9 km/h 23.3 km/h 93 % 0 mm
03:13 -15.8 °C -16.5 °C 34073.3 hPa SW 15.6 km/h 23.3 km/h 92 % 0 mm
03:19 -15.9 °C -16.6 °C 34073.3 hPa SW 12.7 km/h 18.2 km/h 91 % 0 mm
03:26 -16.1 °C -16.8 °C 34073.3 hPa SSW 10.3 km/h 12.9 km/h 91 % 0 mm
03:32 -16.3 °C -16.9 °C 34073.3 hPa SSW 7.6 km/h 12.9 km/h 92 % 0 mm
03:37 -16.4 °C -17.1 °C 34073.3 hPa SW 10.3 km/h 12.9 km/h 92 % 0 mm
03:44 -16.3 °C -16.9 °C 34073.3 hPa SW 15.6 km/h 15.6 km/h 93 % 0 mm
03:49 -16.3 °C -16.8 °C 34073.3 hPa SW 15.6 km/h 15.6 km/h 93 % 0 mm
03:56 -16.3 °C -16.8 °C 34073.3 hPa SSW 10.3 km/h 12.9 km/h 93 % 0 mm
04:02 -16.3 °C -16.8 °C 34073.3 hPa SSW 12.7 km/h 12.9 km/h 93 % 0 mm
04:08 -16.3 °C -16.9 °C 34073.3 hPa SSW 10.3 km/h 12.9 km/h 93 % 0 mm
04:14 -16.3 °C -16.8 °C 34073.3 hPa SW 15.6 km/h 18.2 km/h 94 % 0 mm
04:20 -16.2 °C -16.8 °C 34073.3 hPa SSW 12.7 km/h 18.2 km/h 93 % 0 mm
04:26 -16.3 °C -16.8 °C 34073.3 hPa SSW 10.3 km/h 15.6 km/h 93 % 0 mm
04:32 -16.3 °C -16.8 °C 34073.3 hPa SW 10.3 km/h 12.9 km/h 93 % 0 mm
04:38 -16.3 °C -16.8 °C 34073.3 hPa SSW 10.3 km/h 12.9 km/h 93 % 0 mm
04:44 -16.2 °C -16.7 °C 34073.3 hPa SSW 10.3 km/h 18.2 km/h 94 % 0 mm
04:50 -16.2 °C -16.8 °C 34073.3 hPa SSW 7.6 km/h 12.9 km/h 93 % 0 mm
04:56 -16.3 °C -16.8 °C 34073.3 hPa SSW 12.7 km/h 18.2 km/h 93 % 0 mm
05:02 -16.3 °C -16.8 °C 34073.3 hPa SSW 12.7 km/h 12.9 km/h 93 % 0 mm
05:08 -16.3 °C -16.8 °C 34073.3 hPa SSW 7.6 km/h 10.3 km/h 93 % 0 mm
05:14 -16.3 °C -16.8 °C 34073.3 hPa SSW 7.6 km/h 12.9 km/h 93 % 0 mm
05:20 -16.3 °C -16.9 °C 34073.3 hPa SSW 10.3 km/h 12.9 km/h 93 % 0 mm
05:26 -16.4 °C -17 °C 34063.2 hPa SSW 7.6 km/h 10.3 km/h 93 % 0 mm
05:32 -16.5 °C -17.1 °C 34073.3 hPa SSW 5.1 km/h 10.3 km/h 93 % 0 mm
05:38 -16.6 °C -17.1 °C 34073.3 hPa SSW 10.3 km/h 10.3 km/h 93 % 0 mm
05:44 -16.6 °C -17.1 °C 34073.3 hPa SSW 7.6 km/h 10.3 km/h 94 % 0 mm
05:50 -16.5 °C -17 °C 34073.3 hPa SSW 10.3 km/h 12.9 km/h 94 % 0 mm
05:56 -16.6 °C -17.1 °C 34063.2 hPa SSW 5.1 km/h 10.3 km/h 93 % 0 mm
06:02 -16.6 °C -17.2 °C 34063.2 hPa SSW 2.3 km/h 7.7 km/h 93 % 0 mm
06:08 -16.7 °C -17.2 °C 34063.2 hPa SSW 2.3 km/h 2.6 km/h 93 % 0 mm
06:14 -16.7 °C -17.2 °C 34063.2 hPa Calm   5.1 km/h 94 % 0 mm
06:20 -16.7 °C -17.2 °C 34073.3 hPa SSW 2.3 km/h 2.6 km/h 94 % 0 mm
06:26 -16.7 °C -17.2 °C 34073.3 hPa SSW 2.3 km/h 5.1 km/h 94 % 0 mm
06:32 -16.6 °C -17 °C 34073.3 hPa SSW 2.3 km/h 5.1 km/h 95 % 0 mm
06:38 -16.6 °C -16.9 °C 34073.3 hPa SSW 5.1 km/h 5.1 km/h 95 % 0 mm
06:44 -16.6 °C -17.1 °C 34073.3 hPa SW 5.1 km/h 10.3 km/h 94 % 0 mm
06:50 -16.6 °C -17.1 °C 34073.3 hPa SSW 7.6 km/h 7.7 km/h 94 % 0 mm
06:56 -16.7 °C -17.2 °C 34073.3 hPa SSW 2.3 km/h 5.1 km/h 94 % 0 mm
07:02 -16.8 °C -17.3 °C 34073.3 hPa Calm   2.6 km/h 94 % 0 mm
07:08 -16.8 °C -17.3 °C 34073.3 hPa Calm     94 % 0 mm
07:14 -16.8 °C -17.3 °C 34073.3 hPa Calm   2.6 km/h 94 % 0 mm
07:20 -16.7 °C -17.2 °C 34073.3 hPa Calm     94 % 0 mm
07:26 -16.7 °C -17.2 °C 34073.3 hPa Calm   2.6 km/h 94 % 0 mm
07:32 -16.7 °C -17.2 °C 34073.3 hPa SSW 2.3 km/h 7.7 km/h 94 % 0 mm
07:38 -16.7 °C -17.2 °C 34073.3 hPa SSW 2.3 km/h 5.1 km/h 94 % 0 mm
07:44 -16.7 °C -17.2 °C 34073.3 hPa Calm   2.6 km/h 93 % 0 mm
07:50 -16.5 °C -17.1 °C 34073.3 hPa Calm   2.6 km/h 93 % 0 mm
07:56 -16.4 °C -17.1 °C 34073.3 hPa SSW 2.3 km/h 2.6 km/h 92 % 0 mm
08:02 -16.3 °C -17 °C 34073.3 hPa SSE 2.3 km/h 2.6 km/h 92 % 0 mm
08:08 -16.4 °C -17.2 °C 34073.3 hPa SSW 2.3 km/h 5.1 km/h 91 % 0 mm
08:14 -16.4 °C -17.1 °C 34073.3 hPa SSW 2.3 km/h 5.1 km/h 92 % 0 mm
08:20 -16.3 °C -17 °C 34073.3 hPa SSW 2.3 km/h 5.1 km/h 92 % 0 mm
08:26 -16.2 °C -16.8 °C 34073.3 hPa Calm   5.1 km/h 92 % 0 mm
08:32 -16 °C -16.7 °C 34073.3 hPa SSW 10.3 km/h 12.9 km/h 91 % 0 mm
08:38 -15.9 °C -16.6 °C 34073.3 hPa SSE 7.6 km/h 12.9 km/h 91 % 0 mm
08:44 -15.7 °C -16.4 °C 34073.3 hPa South 2.3 km/h 15.6 km/h 91 % 0 mm
08:50 -15.6 °C -16.4 °C 34073.3 hPa SSW 12.7 km/h 12.9 km/h 90 % 0 mm
08:56 -15.5 °C -16.3 °C 34073.3 hPa South 7.6 km/h 15.6 km/h 90 % 0 mm
09:02 -15.5 °C -16.3 °C 34073.3 hPa South 2.3 km/h 10.3 km/h 90 % 0 mm
09:08 -15.4 °C -16.2 °C 34073.3 hPa South 2.3 km/h 10.3 km/h 90 % 0 mm
09:14 -15.3 °C -16.3 °C 34073.3 hPa SE 5.1 km/h 7.7 km/h 89 % 0 mm
09:20 -15.1 °C -16.1 °C 34073.3 hPa SSE 5.1 km/h 12.9 km/h 89 % 0 mm
09:26 -14.9 °C -16.1 °C 34073.3 hPa SSW 10.3 km/h 18.2 km/h 87 % 0 mm
09:32 -14.8 °C -15.9 °C 34073.3 hPa South 7.6 km/h 18.2 km/h 87 % 0 mm
09:38 -14.8 °C -16 °C 34073.3 hPa SSW 10.3 km/h 18.2 km/h 86 % 0 mm
09:44 -14.7 °C -15.9 °C 34073.3 hPa South 10.3 km/h 18.2 km/h 85 % 0 mm
09:50 -14.5 °C -15.8 °C 34073.3 hPa SSW 17.9 km/h 20.8 km/h 85 % 0 mm
09:56 -14.3 °C -15.8 °C 34073.3 hPa SSW 12.7 km/h 20.8 km/h 83 % 0 mm
10:02 -14.3 °C -15.8 °C 34073.3 hPa SSW 10.3 km/h 20.8 km/h 83 % 0 mm
10:08 -14.2 °C -15.8 °C 34073.3 hPa SW 17.9 km/h 20.8 km/h 82 % 0 mm
10:14 -14.1 °C -15.7 °C 34063.2 hPa SSW 15.6 km/h 20.8 km/h 82 % 0 mm
10:20 -13.8 °C -15.4 °C 34063.2 hPa SW 20.9 km/h 20.9 km/h 82 % 0 mm
10:26 -13.4 °C -15.4 °C 34063.2 hPa SSW 28.5 km/h 28.5 km/h 78 % 0 mm
10:32 -13.3 °C -15.5 °C 34063.2 hPa SW 33.6 km/h 36.2 km/h 76 % 0 mm
10:38 -13.2 °C -15.7 °C 34063.2 hPa SSW 26.2 km/h 38.8 km/h 74 % 0 mm
10:44 -13.2 °C -15.6 °C 34063.2 hPa SSW 28.5 km/h 33.6 km/h 74 % 0 mm
10:51 -13.1 °C -15.7 °C 34063.2 hPa SSW 33.6 km/h 38.8 km/h 73 % 0 mm
10:57 -13 °C -15.4 °C 34063.2 hPa SW 23 km/h 28.5 km/h 74 % 0 mm
11:03 -12.8 °C -15.4 °C 34063.2 hPa SSW 23 km/h 33.6 km/h 73 % 0 mm
11:09 -12.7 °C -15.6 °C 34063.2 hPa South 26.2 km/h 36.2 km/h 70 % 0 mm
11:15 -12.7 °C -15.6 °C 34063.2 hPa SSW 23 km/h 36.2 km/h 70 % 0 mm
11:21 -12.6 °C -15.4 °C 34049.6 hPa SW 28.5 km/h 36.2 km/h 70 % 0 mm
11:27 -12.4 °C -15.3 °C 34063.2 hPa SW 31.4 km/h 33.6 km/h 70 % 0 mm
11:33 -12.4 °C -15.3 °C 34049.6 hPa SW 28.5 km/h 38.8 km/h 70 % 0 mm
11:39 -12.2 °C -15.2 °C 34049.6 hPa WSW 17.9 km/h 28.5 km/h 69 % 0 mm
11:45 -12.1 °C -15.2 °C 34063.2 hPa SW 17.9 km/h 28.5 km/h 68 % 0 mm
11:51 -11.9 °C -15.2 °C 34049.6 hPa SW 36.5 km/h 36.5 km/h 67 % 0 mm
11:57 -11.8 °C -15.6 °C 34049.6 hPa SW 20.9 km/h 49.2 km/h 63 % 0 mm
12:03 -11.8 °C -15.7 °C 34049.6 hPa SW 20.9 km/h 38.8 km/h 62 % 0 mm
12:09 -11.7 °C -15.5 °C 34049.6 hPa SW 36.5 km/h 38.8 km/h 63 % 0 mm
12:15 -11.7 °C -15.3 °C 34049.6 hPa SSW 26.2 km/h 41.4 km/h 64 % 0 mm
12:21 -11.7 °C -15.3 °C 34049.6 hPa SW 28.5 km/h 38.8 km/h 64 % 0 mm
12:27 -11.6 °C -15.8 °C 34049.6 hPa SW 31.4 km/h 38.8 km/h 60 % 0 mm
12:33 -11.4 °C -15.5 °C 34049.6 hPa WSW 33.6 km/h 33.6 km/h 61 % 0 mm
12:39 -11.3 °C -15.6 °C 34049.6 hPa WSW 26.2 km/h 44.1 km/h 59 % 0 mm
12:45 -11.2 °C -14.9 °C 34049.6 hPa SW 20.9 km/h 36.2 km/h 64 % 0 mm
12:51 -11.2 °C -15.6 °C 34039.5 hPa SW 20.9 km/h 31.1 km/h 59 % 0 mm
12:57 -11.2 °C -15.8 °C 34039.5 hPa SW 15.6 km/h 36.2 km/h 57 % 0 mm
13:03 -11 °C -15.2 °C 34039.5 hPa SSW 26.2 km/h 36.2 km/h 60 % 0 mm
13:09 -10.9 °C -15.5 °C 34039.5 hPa SSW 15.6 km/h 28.5 km/h 57 % 0 mm
13:15 -10.9 °C -15.3 °C 34029.3 hPa West 5.1 km/h 28.5 km/h 58 % 0 mm
13:21 -10.9 °C -15.6 °C 34029.3 hPa SW 33.6 km/h 33.6 km/h 56 % 0 mm
13:27 -10.9 °C -15.8 °C 34029.3 hPa SW 17.9 km/h 33.6 km/h 55 % 0 mm
13:33 -10.9 °C -15.9 °C 34029.3 hPa West 10.3 km/h 38.8 km/h 54 % 0 mm
13:39 -11 °C -16.2 °C 34029.3 hPa WSW 26.2 km/h 36.2 km/h 53 % 0 mm
13:45 -10.9 °C -16.1 °C 34015.8 hPa WSW 28.5 km/h 38.8 km/h 53 % 0 mm
13:51 -10.8 °C -15.9 °C 34015.8 hPa West 28.5 km/h 41.4 km/h 53 % 0 mm
13:57 -10.7 °C -15.9 °C 34015.8 hPa WSW 31.4 km/h 33.6 km/h 53 % 0 mm
14:03 -10.7 °C -16.3 °C 34015.8 hPa SW 31.4 km/h 57 km/h 50 % 0 mm
14:09 -10.7 °C -15.4 °C 34015.8 hPa SW 28.5 km/h 57 km/h 56 % 0 mm
14:15 -10.6 °C -16.1 °C 34015.8 hPa WSW 44.1 km/h 46.7 km/h 51 % 0 mm
14:21 -10.6 °C -16.4 °C 34015.8 hPa SSW 36.5 km/h 44.1 km/h 49 % 0 mm
14:27 -10.6 °C -16.6 °C 34015.8 hPa SW 26.2 km/h 59.5 km/h 48 % 0 mm
14:33 -10.6 °C -16.3 °C 34015.8 hPa West 33.6 km/h 54.4 km/h 50 % 0 mm
14:39 -10.5 °C -16.2 °C 34015.8 hPa WSW 26.2 km/h 41.4 km/h 50 % 0 mm
14:45 -10.5 °C -16.5 °C 34015.8 hPa SW 28.5 km/h 46.7 km/h 48 % 0 mm
14:51 -10.5 °C -16.2 °C 34015.8 hPa West 17.9 km/h 36.2 km/h 50 % 0 mm
14:57 -10.4 °C -15.9 °C 34015.8 hPa SSW 20.9 km/h 31.1 km/h 51 % 0 mm
15:03 -10.4 °C -16.4 °C 34015.8 hPa WSW 31.4 km/h 54.4 km/h 48 % 0 mm
15:09 -10.4 °C -16.4 °C 34015.8 hPa SW 44.1 km/h 49.2 km/h 48 % 0 mm
15:15 -10.4 °C -16.3 °C 34015.8 hPa SW 38.8 km/h 41.4 km/h 49 % 0 mm
15:21 -10.5 °C -16.3 °C 34015.8 hPa SSW 31.4 km/h 49.2 km/h 49 % 0 mm
15:27 -10.4 °C -15.9 °C 34015.8 hPa West 10.3 km/h 31.1 km/h 51 % 0 mm
15:33 -10.4 °C -16.2 °C 34015.8 hPa SW 23 km/h 41.4 km/h 49 % 0 mm
15:39 -10.4 °C -16.2 °C 34015.8 hPa WSW 23 km/h 44.1 km/h 49 % 0 mm
15:45 -10.4 °C -16.4 °C 34015.8 hPa WSW 23 km/h 41.4 km/h 48 % 0 mm
15:51 -10.4 °C -16.2 °C 34015.8 hPa WSW 17.9 km/h 33.6 km/h 49 % 0 mm
15:57 -10.4 °C -16.4 °C 34015.8 hPa West 20.9 km/h 38.8 km/h 48 % 0 mm
16:03 -10.4 °C -16.4 °C 34015.8 hPa WSW 31.4 km/h 38.8 km/h 48 % 0 mm
16:09 -10.5 °C -16.5 °C 34015.8 hPa WSW 33.6 km/h 38.8 km/h 48 % 0 mm
16:15 -10.5 °C -16.2 °C 34015.8 hPa WSW 23 km/h 31.1 km/h 50 % 0 mm
16:21 -10.6 °C -16.2 °C 34015.8 hPa WSW 17.9 km/h 28.5 km/h 50 % 0 mm
16:27 -10.5 °C -16.2 °C 34015.8 hPa SW 17.9 km/h 31.1 km/h 50 % 0 mm
16:33 -10.5 °C -15.8 °C 34015.8 hPa West 10.3 km/h 20.8 km/h 52 % 0 mm
16:39 -10.5 °C -15.8 °C 34015.8 hPa West 10.3 km/h 20.8 km/h 52 % 0 mm
16:45 -10.5 °C -16.3 °C 34015.8 hPa WSW 17.9 km/h 31.1 km/h 49 % 0 mm
16:51 -10.5 °C -16.2 °C 34015.8 hPa SW 23 km/h 23.3 km/h 50 % 0 mm
16:57 -10.5 °C -16.2 °C 34015.8 hPa WSW 10.3 km/h 28.5 km/h 50 % 0 mm
17:03 -10.5 °C -16.2 °C 34015.8 hPa West 5.1 km/h 23.3 km/h 50 % 0 mm
17:09 -10.6 °C -16.1 °C 34015.8 hPa WSW 20.9 km/h 23.3 km/h 51 % 0 mm
17:15 -10.5 °C -16.2 °C 34015.8 hPa SW 31.4 km/h 31.4 km/h 50 % 0 mm
17:21 -10.4 °C -16.2 °C 34029.3 hPa West 17.9 km/h 18.2 km/h 49 % 0 mm
17:27 -10.3 °C -16 °C 34029.3 hPa SW 5.1 km/h 20.8 km/h 50 % 0 mm
17:33 -10.3 °C -16.2 °C 34029.3 hPa WSW 12.7 km/h 23.3 km/h 49 % 0 mm
17:39 -10.5 °C -16.2 °C 34029.3 hPa SW 10.3 km/h 15.6 km/h 50 % 0 mm
17:45 -10.6 °C -16.1 °C 34029.3 hPa WSW 5.1 km/h 15.6 km/h 51 % 0 mm
17:51 -10.7 °C -15.8 °C 34029.3 hPa WSW 2.3 km/h 10.3 km/h 53 % 0 mm
17:57 -10.7 °C -15.9 °C 34029.3 hPa WSW 17.9 km/h 18.2 km/h 53 % 0 mm
18:03 -10.6 °C -15.9 °C 34029.3 hPa WSW 7.6 km/h 15.6 km/h 52 % 0 mm
18:09 -10.6 °C -15.9 °C 34039.5 hPa SW 10.3 km/h 15.6 km/h 52 % 0 mm
18:15 -10.6 °C -16.1 °C 34039.5 hPa WSW 15.6 km/h 20.8 km/h 51 % 0 mm
18:21 -10.7 °C -16 °C 34039.5 hPa WSW 12.7 km/h 20.8 km/h 52 % 0 mm
18:27 -10.8 °C -15.9 °C 34039.5 hPa WSW 7.6 km/h 18.2 km/h 53 % 0 mm
18:33 -10.9 °C -16.1 °C 34039.5 hPa SW 20.9 km/h 20.9 km/h 53 % 0 mm
18:39 -10.9 °C -16.1 °C 34049.6 hPa SW 10.3 km/h 15.6 km/h 53 % 0 mm
18:45 -11.1 °C -16.1 °C 34049.6 hPa SW 7.6 km/h 15.6 km/h 54 % 0 mm
18:51 -11.2 °C -16.3 °C 34049.6 hPa WSW 10.3 km/h 20.8 km/h 53 % 0 mm
18:57 -11.2 °C -16.3 °C 34049.6 hPa WSW 12.7 km/h 15.6 km/h 53 % 0 mm
19:03 -11.3 °C -16.3 °C 34049.6 hPa WSW 5.1 km/h 10.3 km/h 54 % 0 mm
19:09 -11.4 °C -16.4 °C 34063.2 hPa West 7.6 km/h 12.9 km/h 54 % 0 mm
19:15 -11.6 °C -16.4 °C 34063.2 hPa WSW 10.3 km/h 10.3 km/h 55 % 0 mm
19:21 -11.6 °C -16.3 °C 34063.2 hPa WSW 10.3 km/h 12.9 km/h 56 % 0 mm
19:27 -11.7 °C -16.3 °C 34073.3 hPa West 7.6 km/h 10.3 km/h 56 % 0 mm
19:33 -11.8 °C -16.3 °C 34073.3 hPa SW 2.3 km/h 7.7 km/h 57 % 0 mm
19:39 -11.9 °C -16.3 °C 34073.3 hPa Calm   5.1 km/h 58 % 0 mm
19:45 -12.1 °C -16.3 °C 34073.3 hPa Calm   2.6 km/h 59 % 0 mm
19:51 -12.2 °C -16.3 °C 34073.3 hPa West 2.3 km/h 2.6 km/h 60 % 0 mm
19:58 -12.3 °C -16.4 °C 34073.3 hPa West 2.3 km/h 2.6 km/h 60 % 0 mm
20:04 -12.3 °C -16.3 °C 34073.3 hPa Calm   7.7 km/h 61 % 0 mm
20:10 -12.6 °C -16.1 °C 34086.9 hPa SE 5.1 km/h 5.1 km/h 65 % 0 mm
20:16 -13 °C -16.1 °C 34086.9 hPa Calm   2.6 km/h 68 % 0 mm
20:22 -13.2 °C -16.2 °C 34086.9 hPa Calm   2.6 km/h 69 % 0 mm
20:28 -13.3 °C -16.1 °C 34086.9 hPa Calm     70 % 0 mm
20:34 -13.4 °C -16.3 °C 34086.9 hPa Calm     70 % 0 mm
20:40 -13.6 °C -16.2 °C 34086.9 hPa Calm     72 % 0 mm
20:46 -13.7 °C -16.2 °C 34097 hPa Calm     73 % 0 mm
20:52 -13.8 °C -16.3 °C 34097 hPa Calm     73 % 0 mm
20:58 -13.8 °C -16.2 °C 34097 hPa Calm     74 % 0 mm
21:04 -14 °C -16.3 °C 34097 hPa Calm     75 % 0 mm
21:10 -14.1 °C -16.3 °C 34097 hPa Calm   2.6 km/h 76 % 0 mm
21:16 -14.3 °C -16.3 °C 34097 hPa Calm   2.6 km/h 77 % 0 mm
21:22 -14.4 °C -16.3 °C 34107.2 hPa Calm     78 % 0 mm
21:28 -14.5 °C -16.4 °C 34107.2 hPa Calm     79 % 0 mm
21:34 -14.5 °C -16.4 °C 34107.2 hPa Calm     79 % 0 mm
21:40 -14.6 °C -16.3 °C 34107.2 hPa Calm     80 % 0 mm
21:46 -14.6 °C -16.3 °C 34107.2 hPa Calm     81 % 0 mm
21:52 -14.7 °C -16.3 °C 34107.2 hPa Calm     81 % 0 mm
21:58 -14.8 °C -16.4 °C 34107.2 hPa Calm     81 % 0 mm
22:04 -14.8 °C -16.4 °C 34107.2 hPa Calm     82 % 0 mm
22:10 -14.9 °C -16.4 °C 34107.2 hPa Calm   2.6 km/h 82 % 0 mm
22:16 -14.9 °C -16.4 °C 34107.2 hPa Calm     83 % 0 mm
22:22 -14.8 °C -16.3 °C 34107.2 hPa Calm     83 % 0 mm
22:28 -14.8 °C -16.3 °C 34120.7 hPa Calm     82 % 0 mm
22:34 -14.6 °C -16.3 °C 34120.7 hPa Calm     81 % 0 mm
22:40 -14.5 °C -16.4 °C 34120.7 hPa Calm     79 % 0 mm
22:46 -14.4 °C -16.3 °C 34120.7 hPa Calm     79 % 0 mm
22:52 -14.3 °C -16.3 °C 34120.7 hPa Calm     78 % 0 mm
22:58 -14.3 °C -16.3 °C 34130.9 hPa NNE 2.3 km/h 2.6 km/h 78 % 0 mm
23:04 -14.3 °C -16.3 °C 34120.7 hPa Calm   2.6 km/h 78 % 0 mm
23:10 -14.2 °C -16.2 °C 34130.9 hPa Calm     78 % 0 mm
23:16 -14.3 °C -16.3 °C 34130.9 hPa Calm     78 % 0 mm
23:22 -14.2 °C -16.2 °C 34130.9 hPa Calm   2.6 km/h 77 % 0 mm
23:28 -14.1 °C -16.3 °C 34130.9 hPa Calm     76 % 0 mm
23:34 -14.1 °C -16.3 °C 34130.9 hPa Calm     76 % 0 mm
23:40 -14.2 °C -16.3 °C 34130.9 hPa Calm     77 % 0 mm
23:46 -14.3 °C -16.3 °C 34130.9 hPa Calm     78 % 0 mm
23:52 -14.3 °C -16.2 °C 34130.9 hPa Calm     79 % 0 mm
23:59 -14.4 °C -16.3 °C 34130.9 hPa Calm     79 % 0 mm
Meteo18
Compliments of Weather Underground - 4 mb

Script developed by  Jim McMurry - jmcmurry@mwt.net Adapted for the template by  Wim van der Kuil - Leuven-Template.eu

You find our weather info also at:

European Weather Network

Weather Underground

Equipment we use:

Weather-station
Davis Vue

Weather-program
Meteobridge

Weather-server
Raspberry PI 2 B+

Provider
1 and 1

Davis Vue

Meteobridge

Raspberry PI 2 B+

1 and 1